createdAt,value
2023-03-24T00:01:22.512Z,9.85
2023-03-24T00:03:52.549Z,8.37
2023-03-24T00:06:22.949Z,10.30
2023-03-24T00:08:50.900Z,10.15
2023-03-24T00:11:19.548Z,16.27
2023-03-24T00:13:50.515Z,9.68
2023-03-24T00:16:19.835Z,9.77
2023-03-24T00:18:53.152Z,13.32
2023-03-24T00:21:25.685Z,11.60
2023-03-24T00:23:55.798Z,9.85
2023-03-24T00:26:25.247Z,11.02
2023-03-24T00:28:53.574Z,9.30
2023-03-24T00:31:22.326Z,9.55
2023-03-24T00:33:53.983Z,11.63
2023-03-24T00:36:24.553Z,11.23
2023-03-24T00:38:53.473Z,10.30
2023-03-24T00:41:21.723Z,10.98
2023-03-24T00:43:50.998Z,7.53
2023-03-24T00:46:27.809Z,11.07
2023-03-24T00:49:02.471Z,12.38
2023-03-24T00:51:32.701Z,9.90
2023-03-24T00:54:02.164Z,10.90
2023-03-24T00:56:33.903Z,10.33
2023-03-24T00:59:02.477Z,10.30
2023-03-24T01:01:36.630Z,8.02
2023-03-24T01:04:06.200Z,11.68
2023-03-24T01:06:37.308Z,11.13
2023-03-24T01:09:06.487Z,10.18
2023-03-24T01:11:38.839Z,10.95
2023-03-24T01:14:06.947Z,11.10
2023-03-24T01:16:34.451Z,10.05
2023-03-24T01:19:02.290Z,9.93
2023-03-24T01:21:29.838Z,10.65
2023-03-24T01:23:58.066Z,11.50
2023-03-24T01:26:25.559Z,10.15
2023-03-24T01:28:53.182Z,9.15
2023-03-24T01:31:20.851Z,9.88
2023-03-24T01:33:48.441Z,9.93
2023-03-24T01:36:16.098Z,10.23
2023-03-24T01:38:43.607Z,11.05
2023-03-24T01:41:11.698Z,9.65
2023-03-24T01:43:39.303Z,10.20
2023-03-24T01:46:18.013Z,11.07
2023-03-24T01:49:02.752Z,9.02
2023-03-24T01:51:38.358Z,11.77
2023-03-24T01:54:11.260Z,9.93
2023-03-24T01:56:44.320Z,10.95
2023-03-24T01:59:19.404Z,8.77
2023-03-24T02:02:03.303Z,11.93
2023-03-24T02:04:48.618Z,10.47
2023-03-24T02:07:27.239Z,10.07
2023-03-24T02:09:54.842Z,12.23
2023-03-24T02:12:22.520Z,9.15
2023-03-24T02:14:51.571Z,10.07
2023-03-24T02:17:52.018Z,10.30
2023-03-24T02:20:19.544Z,11.30
2023-03-24T02:23:18.034Z,8.93
2023-03-24T02:28:33.317Z,14.63
2023-03-24T02:31:10.029Z,9.98
2023-03-24T02:34:18.199Z,10.38
2023-03-24T02:37:14.772Z,10.80
2023-03-24T02:40:11.791Z,11.80
2023-03-24T02:43:09.723Z,13.18
2023-03-24T02:45:43.379Z,11.75
2023-03-24T02:48:11.153Z,10.85
2023-03-24T02:51:04.735Z,14.65
2023-03-24T02:53:44.319Z,10.77
2023-03-24T02:57:05.128Z,12.75
2023-03-24T03:00:20.887Z,13.50
2023-03-24T03:03:41.666Z,10.98
2023-03-24T03:06:18.370Z,10.60
2023-03-24T03:08:48.530Z,11.48
2023-03-24T03:11:17.676Z,11.25
2023-03-24T03:14:36.912Z,11.83
2023-03-24T03:17:12.704Z,13.77
2023-03-24T03:19:50.449Z,9.70
2023-03-24T03:22:34.407Z,12.10
2023-03-24T03:25:04.454Z,13.10
2023-03-24T03:27:39.338Z,9.73
2023-03-24T03:30:45.453Z,10.45
2023-03-24T03:33:24.780Z,13.13
2023-03-24T03:35:59.093Z,12.18
2023-03-24T03:38:55.996Z,12.32
2023-03-24T03:41:24.272Z,9.43
2023-03-24T03:43:52.606Z,22.95
2023-03-24T03:46:20.287Z,13.68
2023-03-24T03:48:50.336Z,12.68
2023-03-24T03:51:19.903Z,13.60
2023-03-24T03:53:59.123Z,10.98
2023-03-24T03:56:29.731Z,12.98
2023-03-24T03:59:33.989Z,13.90
2023-03-24T04:02:29.028Z,12.35
2023-03-24T04:05:26.280Z,13.35
2023-03-24T04:09:03.363Z,14.57
2023-03-24T04:11:45.235Z,12.30
2023-03-24T04:14:48.691Z,12.68
2023-03-24T04:18:04.740Z,12.63
2023-03-24T04:21:48.638Z,14.82
2023-03-24T04:24:29.465Z,14.13
2023-03-24T04:27:09.422Z,12.90
2023-03-24T04:29:48.308Z,15.90
2023-03-24T04:32:42.194Z,13.15
2023-03-24T04:35:20.735Z,14.55
2023-03-24T04:38:17.341Z,17.37
2023-03-24T04:40:52.123Z,16.65
2023-03-24T04:43:25.022Z,13.65
2023-03-24T04:45:57.992Z,15.83
2023-03-24T04:48:51.832Z,17.47
2023-03-24T04:51:27.158Z,15.07
2023-03-24T04:54:12.508Z,16.45
2023-03-24T04:56:56.967Z,14.60
2023-03-24T04:59:38.619Z,15.17
2023-03-24T05:02:07.521Z,20.98
2023-03-24T05:04:45.883Z,17.08
2023-03-24T05:07:24.957Z,15.67
2023-03-24T05:09:57.496Z,14.68
2023-03-24T05:12:25.215Z,24.07
2023-03-24T05:15:12.587Z,16.85
2023-03-24T05:17:41.625Z,17.90
2023-03-24T05:20:12.908Z,18.07
2023-03-24T05:22:43.719Z,16.50
2023-03-24T05:25:12.067Z,17.40
2023-03-24T05:28:16.127Z,19.02
2023-03-24T05:30:54.217Z,19.50
2023-03-24T05:33:54.139Z,17.70
2023-03-24T05:36:22.989Z,21.23
2023-03-24T05:38:55.653Z,18.55
2023-03-24T05:41:26.728Z,18.77
2023-03-24T05:43:54.274Z,17.00
2023-03-24T05:46:23.298Z,18.25
2023-03-24T05:48:52.937Z,22.73
2023-03-24T05:51:21.733Z,15.57
2023-03-24T05:53:59.349Z,17.67
2023-03-24T05:56:47.176Z,18.45
2023-03-24T05:59:21.330Z,16.63
2023-03-24T06:02:05.424Z,18.60
2023-03-24T06:04:46.727Z,15.68
2023-03-24T06:07:18.164Z,16.95
2023-03-24T06:09:47.540Z,16.67
2023-03-24T06:12:16.706Z,18.38
2023-03-24T06:14:55.959Z,14.90
2023-03-24T06:17:24.831Z,16.02
2023-03-24T06:20:03.027Z,13.68
2023-03-24T06:22:33.597Z,15.40
2023-03-24T06:25:03.813Z,16.80
2023-03-24T06:27:35.937Z,14.90
2023-03-24T06:30:05.690Z,18.90
2023-03-24T06:32:34.399Z,21.52
2023-03-24T06:35:02.419Z,17.50
2023-03-24T06:37:37.153Z,14.75
2023-03-24T06:40:10.363Z,12.13
2023-03-24T06:42:42.779Z,17.65
2023-03-24T06:45:14.350Z,14.63
2023-03-24T06:47:47.866Z,14.13
2023-03-24T06:50:16.727Z,12.15
2023-03-24T06:52:46.582Z,13.60
2023-03-24T06:55:21.364Z,13.30
2023-03-24T06:57:52.844Z,14.40
2023-03-24T07:01:00.999Z,12.85
2023-03-24T07:03:39.260Z,11.77
2023-03-24T07:06:25.804Z,12.68
2023-03-24T07:08:59.943Z,13.05
2023-03-24T07:11:29.831Z,12.10
2023-03-24T07:13:59.919Z,12.63
2023-03-24T07:16:29.259Z,12.90
2023-03-24T07:19:10.590Z,12.82
2023-03-24T07:21:40.984Z,11.88
2023-03-24T07:24:08.512Z,12.48
2023-03-24T07:26:48.047Z,10.32
2023-03-24T07:29:22.164Z,11.00
2023-03-24T07:32:15.968Z,10.98
2023-03-24T07:34:45.828Z,12.32
2023-03-24T07:37:13.581Z,11.75
2023-03-24T07:39:41.298Z,11.85
2023-03-24T07:42:11.816Z,10.40
2023-03-24T07:44:57.234Z,10.90
2023-03-24T07:47:27.567Z,12.07
2023-03-24T07:49:56.774Z,11.18
2023-03-24T07:52:24.366Z,13.05
2023-03-24T07:54:58.656Z,10.63
2023-03-24T07:57:48.303Z,8.63
2023-03-24T08:00:25.089Z,10.52
2023-03-24T08:03:14.623Z,11.00
2023-03-24T08:05:48.756Z,10.20
2023-03-24T08:08:40.497Z,10.13
2023-03-24T08:11:08.117Z,10.30
2023-03-24T08:13:37.769Z,11.00
2023-03-24T08:16:05.571Z,12.57
2023-03-24T08:18:35.155Z,11.30
2023-03-24T08:43:44.258Z,10.38
2023-03-24T08:46:40.102Z,7.88
2023-03-24T08:49:07.772Z,8.23
2023-03-24T08:51:47.325Z,6.57
2023-03-24T08:54:17.729Z,8.13
2023-03-24T08:56:45.531Z,7.07
2023-03-24T08:59:13.247Z,6.30
2023-03-24T09:01:40.928Z,5.47
2023-03-24T09:04:08.388Z,5.15
2023-03-24T09:06:35.826Z,7.55
2023-03-24T09:09:03.451Z,7.05
2023-03-24T09:11:31.325Z,6.32
2023-03-24T09:13:59.105Z,6.55
2023-03-24T09:16:26.944Z,5.32
2023-03-24T09:18:54.487Z,7.18
2023-03-24T09:21:21.934Z,4.22
2023-03-24T09:23:49.540Z,5.55
2023-03-24T09:26:17.085Z,5.75
2023-03-24T09:28:44.648Z,5.85
2023-03-24T09:31:12.206Z,5.97
2023-03-24T09:33:39.905Z,6.07
2023-03-24T09:36:08.088Z,5.68
2023-03-24T09:38:36.112Z,6.03
2023-03-24T09:41:04.605Z,4.85
2023-03-24T09:43:32.151Z,4.30
2023-03-24T09:46:02.978Z,3.92
2023-03-24T09:48:59.812Z,6.60
2023-03-24T09:51:30.034Z,4.78
2023-03-24T09:54:22.386Z,3.78
2023-03-24T09:56:52.069Z,4.95
2023-03-24T09:59:34.770Z,3.33
2023-03-24T10:02:10.782Z,3.38
2023-03-24T10:04:38.681Z,4.68
2023-03-24T10:07:30.955Z,5.50
2023-03-24T10:10:00.269Z,5.40
2023-03-24T10:12:40.305Z,6.30
2023-03-24T10:15:37.135Z,4.25
2023-03-24T10:18:33.479Z,4.22
2023-03-24T10:21:25.887Z,3.65
2023-03-24T10:24:12.098Z,5.03
2023-03-24T10:26:56.948Z,3.67
2023-03-24T10:29:31.326Z,11.10
2023-03-24T10:32:21.019Z,5.20
2023-03-24T10:34:55.837Z,3.40
2023-03-24T10:37:23.653Z,4.03
2023-03-24T10:39:52.060Z,6.43
2023-03-24T10:42:25.853Z,3.55
2023-03-24T10:44:53.538Z,3.88
2023-03-24T10:47:32.874Z,3.75
2023-03-24T10:50:12.176Z,4.53
2023-03-24T10:52:49.010Z,3.88
2023-03-24T10:55:19.582Z,5.97
2023-03-24T10:57:50.929Z,3.67
2023-03-24T11:00:30.169Z,5.18
2023-03-24T11:03:02.396Z,5.50
2023-03-24T11:05:36.947Z,3.00
2023-03-24T11:08:29.992Z,4.22
2023-03-24T11:10:58.244Z,3.60
2023-03-24T11:13:34.548Z,5.63
2023-03-24T11:16:08.562Z,5.93
2023-03-24T11:18:36.628Z,3.55
2023-03-24T11:21:07.139Z,3.25
2023-03-24T11:23:38.279Z,3.00
2023-03-24T11:26:16.933Z,4.03
2023-03-24T11:28:53.149Z,4.20
2023-03-24T11:31:32.247Z,3.90
2023-03-24T11:45:46.163Z,4.03
2023-03-24T11:48:16.826Z,3.95
2023-03-24T11:51:27.670Z,4.22
2023-03-24T11:59:30.579Z,6.78
2023-03-24T12:15:59.552Z,3.65
2023-03-24T12:18:48.133Z,3.15
2023-03-24T12:21:59.062Z,2.88
2023-03-24T12:25:22.445Z,3.75
2023-03-24T12:32:01.665Z,3.78
2023-03-24T12:34:49.969Z,2.90
2023-03-24T12:42:03.037Z,3.83
2023-03-24T12:45:51.448Z,3.28
2023-03-24T12:49:13.154Z,2.78
2023-03-24T12:51:53.193Z,4.43
2023-03-24T12:55:14.491Z,3.47
2023-03-24T12:58:39.416Z,2.75
2023-03-24T13:01:43.826Z,2.38
2023-03-24T13:05:10.655Z,2.83
2023-03-24T13:08:43.465Z,4.18
2023-03-24T13:12:31.523Z,3.95
2023-03-24T13:16:06.831Z,3.08
2023-03-24T13:19:15.600Z,5.78
2023-03-24T13:21:53.076Z,3.70
2023-03-24T13:24:21.308Z,2.58
2023-03-24T13:27:28.916Z,6.68
2023-03-24T13:30:39.175Z,4.93
2023-03-24T13:33:27.470Z,4.72
2023-03-24T13:36:20.148Z,3.20
2023-03-24T13:38:55.545Z,2.58
2023-03-24T13:41:27.434Z,4.40
2023-03-24T13:44:01.529Z,3.45
2023-03-24T13:46:29.809Z,3.42
2023-03-24T13:48:59.159Z,3.15
2023-03-24T13:51:33.530Z,5.45
2023-03-24T13:54:06.086Z,2.90
2023-03-24T13:56:37.199Z,5.18
2023-03-24T13:59:13.518Z,3.75
2023-03-24T14:01:44.103Z,2.53
2023-03-24T14:04:28.395Z,3.50
2023-03-24T14:06:59.015Z,4.47
2023-03-24T14:09:31.006Z,4.75
2023-03-24T14:12:04.333Z,4.60
2023-03-24T14:14:36.302Z,3.53
2023-03-24T14:17:12.391Z,2.85
2023-03-24T14:19:43.913Z,3.03
2023-03-24T14:22:14.194Z,4.60
2023-03-24T14:24:45.006Z,4.03
2023-03-24T14:27:29.486Z,2.40
2023-03-24T14:30:01.058Z,2.30
2023-03-24T14:32:30.617Z,3.70
2023-03-24T14:35:00.303Z,3.33
2023-03-24T14:37:29.089Z,4.57
2023-03-24T14:39:58.561Z,3.45
2023-03-24T14:42:31.824Z,4.13
2023-03-24T14:45:05.799Z,3.33
2023-03-24T14:47:38.742Z,1.70
2023-03-24T14:50:21.912Z,2.40
2023-03-24T14:52:59.459Z,3.35
2023-03-24T14:55:28.256Z,3.50
2023-03-24T14:58:01.042Z,2.00
2023-03-24T15:01:07.548Z,6.75
2023-03-24T15:03:42.181Z,4.40
2023-03-24T15:06:18.042Z,2.42
2023-03-24T15:09:01.391Z,2.13
2023-03-24T15:11:34.594Z,5.20
2023-03-24T15:14:28.442Z,4.07
2023-03-24T15:17:16.389Z,3.38
2023-03-24T15:19:44.067Z,4.03
2023-03-24T15:22:15.464Z,1.92
2023-03-24T15:24:43.465Z,3.55
2023-03-24T15:27:15.599Z,3.17
2023-03-24T15:29:46.645Z,3.22
2023-03-24T15:32:23.312Z,2.10
2023-03-24T15:34:52.573Z,3.55
2023-03-24T15:37:24.360Z,2.35
2023-03-24T15:40:01.943Z,2.88
2023-03-24T15:42:42.825Z,2.13
2023-03-24T15:45:32.093Z,2.75
2023-03-24T15:48:08.744Z,2.00
2023-03-24T15:50:42.019Z,2.22
2023-03-24T15:53:16.041Z,2.38
2023-03-24T15:55:43.942Z,4.50
2023-03-24T15:58:28.859Z,2.13
2023-03-24T16:01:00.114Z,2.05
2023-03-24T16:03:32.429Z,2.22
2023-03-24T16:06:00.065Z,3.00
2023-03-24T16:08:35.976Z,2.78
2023-03-24T16:13:40.691Z,4.35
2023-03-24T16:16:27.498Z,2.28
2023-03-24T16:18:59.614Z,5.38
2023-03-24T16:57:03.509Z,3.45
2023-03-24T16:59:31.083Z,2.45
2023-03-24T17:02:06.141Z,1.25
2023-03-24T17:04:34.117Z,2.05
2023-03-24T17:07:01.670Z,2.92
2023-03-24T17:09:30.894Z,2.83
2023-03-24T17:12:00.675Z,3.72
2023-03-24T17:14:30.894Z,4.45
2023-03-24T17:16:59.776Z,1.88
2023-03-24T17:19:27.326Z,3.30
2023-03-24T17:22:03.425Z,2.63
2023-03-24T17:24:36.083Z,2.55
2023-03-24T17:27:10.429Z,2.38
2023-03-24T17:29:37.973Z,3.60
2023-03-24T17:32:05.586Z,3.75
2023-03-24T17:34:33.131Z,3.95
2023-03-24T17:37:01.094Z,2.88
2023-03-24T17:39:28.734Z,3.30
2023-03-24T17:42:02.007Z,3.28
2023-03-24T17:44:36.937Z,2.58
2023-03-24T17:47:07.630Z,3.47
2023-03-24T17:49:35.180Z,3.85
2023-03-24T17:52:32.177Z,4.43
2023-03-24T17:55:07.551Z,3.00
2023-03-24T17:58:02.189Z,2.80
2023-03-24T18:00:34.133Z,5.78
2023-03-24T18:03:04.458Z,9.75
2023-03-24T18:05:35.913Z,5.03
2023-03-24T18:08:04.250Z,4.00
2023-03-24T18:10:34.351Z,4.93
2023-03-24T18:13:03.864Z,2.45
2023-03-24T18:15:31.875Z,3.30
2023-03-24T18:17:59.387Z,3.83
2023-03-24T18:20:27.626Z,4.30
2023-03-24T18:22:55.106Z,3.92
2023-03-24T18:25:22.797Z,3.15
2023-03-24T18:27:50.225Z,3.75
2023-03-24T18:30:17.764Z,5.97
2023-03-24T18:32:45.610Z,2.75
2023-03-24T18:35:16.422Z,5.35
2023-03-24T18:37:44.601Z,6.03
2023-03-24T18:40:12.591Z,2.47
2023-03-24T18:42:40.425Z,5.15
2023-03-24T18:45:08.566Z,5.30
2023-03-24T18:47:36.485Z,4.63
2023-03-24T18:50:04.414Z,2.83
2023-03-24T18:52:33.216Z,2.30
2023-03-24T18:55:02.520Z,3.58
2023-03-24T18:57:31.372Z,4.45
2023-03-24T19:00:00.920Z,6.30
2023-03-24T19:02:30.796Z,4.78
2023-03-24T19:04:58.455Z,3.88
2023-03-24T19:07:26.407Z,4.85
2023-03-24T19:09:54.874Z,8.10
2023-03-24T19:12:22.533Z,4.05
2023-03-24T19:14:50.856Z,5.13
2023-03-24T19:17:18.370Z,4.90
2023-03-24T19:19:46.008Z,3.70
2023-03-24T19:22:15.446Z,7.95
2023-03-24T19:24:42.983Z,8.95
2023-03-24T19:27:10.453Z,4.15
2023-03-24T19:29:38.047Z,6.40
2023-03-24T19:32:05.812Z,5.10
2023-03-24T19:34:33.396Z,5.25
2023-03-24T19:37:00.897Z,3.90
2023-03-24T19:39:28.393Z,4.97
2023-03-24T19:41:56.045Z,5.03
2023-03-24T19:44:23.657Z,5.85
2023-03-24T19:46:51.104Z,4.95
2023-03-24T19:49:19.038Z,5.05
2023-03-24T19:51:47.454Z,4.68
2023-03-24T19:54:15.530Z,4.15
2023-03-24T19:56:43.273Z,4.07
2023-03-24T19:59:10.793Z,3.60
2023-03-24T20:01:38.246Z,4.05
2023-03-24T20:04:05.925Z,4.28
2023-03-24T20:06:33.557Z,5.07
2023-03-24T20:09:01.318Z,3.63
2023-03-24T20:11:28.873Z,5.22
2023-03-24T20:13:56.595Z,5.25
2023-03-24T20:16:24.781Z,4.70
2023-03-24T20:18:52.629Z,4.38
2023-03-24T20:21:24.650Z,4.22
2023-03-24T20:23:52.771Z,4.38
2023-03-24T20:26:20.591Z,4.18
2023-03-24T20:28:48.377Z,3.42
2023-03-24T20:31:16.651Z,6.28
2023-03-24T20:33:44.196Z,3.90
2023-03-24T20:36:12.087Z,3.88
2023-03-24T20:38:39.627Z,2.78
2023-03-24T20:41:07.708Z,4.35
2023-03-24T20:43:37.352Z,4.53
2023-03-24T20:46:09.780Z,3.28
2023-03-24T20:48:37.965Z,4.60
2023-03-24T20:51:07.828Z,3.63
2023-03-24T20:53:36.063Z,4.45
2023-03-24T20:56:09.490Z,4.47
2023-03-24T20:58:38.151Z,3.97
2023-03-24T21:01:20.509Z,4.18
2023-03-24T21:03:53.285Z,3.43
2023-03-24T21:06:21.233Z,3.22
2023-03-24T21:08:48.689Z,3.90
2023-03-24T21:11:16.304Z,4.85
2023-03-24T21:13:44.127Z,4.88
2023-03-24T21:16:13.103Z,3.70
2023-03-24T21:18:46.030Z,3.83
2023-03-24T21:21:15.416Z,3.73
2023-03-24T21:23:43.495Z,5.13
2023-03-24T21:26:17.393Z,3.60
2023-03-24T21:28:45.463Z,2.30
2023-03-24T21:31:24.487Z,5.43
2023-03-24T21:33:52.966Z,3.57
2023-03-24T21:36:22.224Z,3.37
2023-03-24T21:38:51.823Z,4.13
2023-03-24T21:41:20.341Z,5.10
2023-03-24T21:43:51.383Z,2.97
2023-03-24T21:46:22.104Z,3.70
2023-03-24T21:48:52.283Z,6.63
2023-03-24T21:51:33.979Z,3.50
2023-03-24T21:54:03.643Z,2.80
2023-03-24T21:56:33.136Z,5.35
2023-03-24T21:59:01.139Z,4.67
2023-03-24T22:01:28.870Z,3.13
2023-03-24T22:03:58.837Z,5.27
2023-03-24T22:06:29.063Z,3.55
2023-03-24T22:08:58.773Z,3.17
2023-03-24T22:11:26.453Z,5.05
2023-03-24T22:13:56.352Z,4.90
2023-03-24T22:16:23.820Z,2.40
2023-03-24T22:18:53.062Z,5.30
2023-03-24T22:21:20.631Z,2.25
2023-03-24T22:23:48.071Z,4.77
2023-03-24T22:26:19.213Z,3.67
2023-03-24T22:28:46.814Z,6.77
2023-03-24T22:31:16.777Z,2.60
2023-03-24T22:33:45.345Z,3.57
2023-03-24T22:36:12.891Z,2.80
2023-03-24T22:38:40.680Z,4.50
2023-03-24T22:41:10.812Z,3.38
2023-03-24T22:43:41.859Z,3.83
2023-03-24T22:46:11.917Z,2.65
2023-03-24T22:48:42.183Z,5.57
2023-03-24T22:51:10.616Z,4.30
2023-03-24T22:53:38.214Z,3.67
2023-03-24T22:56:06.417Z,5.57
2023-03-24T22:58:35.839Z,5.28
2023-03-24T23:01:04.938Z,3.78
2023-03-24T23:03:33.432Z,4.38
2023-03-24T23:06:05.158Z,5.80
2023-03-24T23:08:33.768Z,2.53
2023-03-24T23:11:01.498Z,4.65
2023-03-24T23:13:30.888Z,3.23
2023-03-24T23:15:58.596Z,3.30
2023-03-24T23:18:26.221Z,4.47
2023-03-24T23:21:07.910Z,4.53
2023-03-24T23:23:36.810Z,2.47
2023-03-24T23:26:05.667Z,7.47
2023-03-24T23:28:33.716Z,2.78
2023-03-24T23:31:01.437Z,3.30
2023-03-24T23:33:29.390Z,3.40
2023-03-24T23:35:58.829Z,3.40
2023-03-24T23:38:27.555Z,4.40
2023-03-24T23:40:55.111Z,3.67
2023-03-24T23:43:22.774Z,3.90
2023-03-24T23:45:55.285Z,4.07
2023-03-24T23:48:23.921Z,5.77
2023-03-24T23:51:02.581Z,2.10
2023-03-24T23:53:30.806Z,5.93
2023-03-24T23:56:06.756Z,3.70
2023-03-24T23:58:37.143Z,4.73
